Data for 08/11/2009

Time Sea-Level Adjusted Pressure Absolute Pressure Temperature Relative Humidity Dew Point   
(mb) (inHg) (mb) (inHg) (C) (F) (%) (C) (F)
00:05 1023 30.21 852 25.16 17.9 64.2 40 4.1 39.4
00:10 1023 30.21 852 25.16 18 64.4 39 4.1 39.4
00:15 1023 30.21 852 25.16 17.9 64.3 40 4.1 39.4
00:20 1023 30.21 852 25.16 17.7 63.9 43 5.1 41.1
00:25 1023 30.21 852 25.16 17.4 63.3 42 4.4 40
00:30 1023 30.21 852 25.16 17.1 62.7 42 4.2 39.5
00:35 1023 30.21 852 25.16 16.9 62.4 43 4.5 40
00:40 1023 30.21 852 25.16 16.8 62.3 43 4.4 39.9
00:45 1023 30.21 852 25.16 16.5 61.6 45 4.5 40.1
00:50 1023 30.21 852 25.16 16.2 61.1 45 4.4 40
00:55 1023 30.21 852 25.16 16 60.8 46 4.4 40
01:00 1023 30.21 852 25.16 15.9 60.6 45 4.1 39.5
01:05 1023 30.21 852 25.16 16.2 61.2 46 4.8 40.6
01:10 1023 30.21 852 25.16 16 60.8 46 4.5 40.1
01:15 1023 30.21 852 25.16 16 60.7 49 5.3 41.6
01:20 1023 30.21 852 25.16 16.1 60.9 46 4.6 40.2
01:25 1023 30.21 852 25.16 16.2 61.2 45 4.4 40
01:30 1023 30.21 852 25.16 16.1 61 48 5.3 41.5
01:35 1023 30.21 852 25.16 16.1 61 45 4.4 39.9
01:40 1023 30.21 852 25.16 16.2 61.2 44 4 39.2
01:45 1023 30.21 852 25.16 16.3 61.4 47 5 40.9
01:50 1023 30.21 852 25.16 16.2 61.1 45 4.2 39.6
01:55 1023 30.21 852 25.16 16.1 60.9 46 4.5 40.1
02:00 1023 30.21 852 25.16 16 60.7 47 4.8 40.7
02:05 1023 30.21 852 25.16 15.9 60.6 46 4.5 40.1
02:10 1023 30.21 852 25.16 15.7 60.2 47 4.4 40
02:15 1023 30.21 852 25.16 15.5 59.8 47 4.4 39.9
02:20 1023 30.21 852 25.16 15.5 59.9 47 4.2 39.6
02:25 1023 30.21 852 25.16 15.7 60.3 46 4.2 39.5
02:30 1023 30.21 852 25.16 15.7 60.3 46 4.4 39.9
02:35 1023 30.21 852 25.16 15.7 60.2 46 4.2 39.6
02:40 1023 30.21 852 25.16 15.7 60.3 47 4.4 39.9
02:45 1023 30.21 852 25.16 15.7 60.3 47 4.5 40
02:50 1023 30.21 852 25.16 15.6 60 47 4.5 40.1
02:55 1023 30.21 852 25.16 15.6 60 47 4.3 39.8
03:00 1023 30.21 852 25.16 15.7 60.3 46 4.2 39.6
03:05 1023 30.21 852 25.16 15.8 60.5 46 4.4 39.9
03:10 1023 30.21 852 25.16 15.8 60.4 46 4.3 39.8
03:15 1023 30.21 852 25.16 15.9 60.6 46 4.3 39.7
03:20 1023 30.21 852 25.16 15.9 60.7 46 4.6 40.2
03:25 1023 30.21 852 25.16 15.6 60.1 47 4.3 39.7
03:30 1023 30.21 852 25.16 15.6 60 47 4.3 39.7
03:35 1023 30.21 852 25.16 15.5 59.9 48 4.5 40.2
03:40 1023 30.21 852 25.16 15.2 59.4 48 4.5 40.1
03:45 1023 30.21 852 25.16 15.1 59.1 50 4.7 40.5
03:50 1023 30.21 852 25.16 14.7 58.5 51 4.8 40.6
03:55 1023 30.21 852 25.16 14.5 58.2 51 4.7 40.5
04:00 1023 30.21 852 25.16 14.5 58.1 51 4.5 40
04:05 1023 30.21 852 25.16 14.5 58.1 51 4.6 40.3
04:10 1023 30.21 852 25.16 14.5 58.1 51 4.6 40.2
04:15 1023 30.21 852 25.16 14.4 58 52 4.7 40.5
04:20 1023 30.21 852 25.16 14.4 57.8 52 4.6 40.4
04:25 1023 30.21 852 25.16 14.4 57.8 51 4.5 40.1
04:30 1023 30.21 852 25.16 14.3 57.7 52 4.6 40.3
04:35 1023 30.21 852 25.16 14.3 57.7 51 4.5 40.1
04:40 1023 30.21 852 25.16 14.3 57.8 51 4.5 40.2
04:45 1023 30.21 852 25.16 14.3 57.7 52 4.6 40.2
04:50 1023 30.21 852 25.16 14.1 57.5 52 4.5 40.2
04:55 1023 30.21 852 25.16 14.1 57.4 52 4.5 40.1
05:00 1023 30.21 852 25.16 14.1 57.5 52 4.5 40.1
05:05 1023 30.21 852 25.16 14 57.1 54 4.8 40.6
05:10 1023 30.21 852 25.16 13.7 56.7 54 4.6 40.3
05:15 1023 30.21 852 25.16 13.7 56.6 53 4.4 39.9
05:20 1023 30.21 852 25.16 13.8 56.8 53 4.4 39.9
05:25 1023 30.21 852 25.16 13.9 57 52 4.4 39.8
05:30 1023 30.21 852 25.16 14 57.1 52 4.3 39.7
05:35 1023 30.21 852 25.16 14 57.1 52 4.4 40
05:40 1023 30.21 852 25.16 13.8 56.9 53 4.5 40.1
05:45 1023 30.21 852 25.16 13.7 56.6 54 4.6 40.3
05:50 1023 30.21 852 25.16 13.6 56.5 54 4.4 40
05:55 1023 30.21 852 25.16 13.5 56.3 54 4.6 40.3
06:00 1023 30.21 852 25.16 13.6 56.5 53 4.2 39.5
06:05 1023 30.21 852 25.16 13.9 57 52 4.2 39.5
06:10 1023 30.21 852 25.16 14.1 57.5 51 4.1 39.4
06:15 1023 30.21 852 25.16 14.1 57.4 51 4.2 39.5
06:20 1023 30.21 852 25.16 14.2 57.5 51 4.3 39.7
06:25 1023 30.21 852 25.16 14 57.2 52 4.3 39.7
06:30 1023 30.21 852 25.16 13.9 57 52 4.2 39.6
06:35 1023 30.21 852 25.16 13.9 57 53 4.4 39.9
06:40 1023 30.21 853 25.19 13.7 56.6 54 4.6 40.2
06:45 1023 30.21 853 25.19 13.6 56.5 53 4.3 39.7
06:50 1023 30.21 853 25.19 13.7 56.7 53 4.4 39.9
06:55 1023 30.21 853 25.19 13.9 57 51 4 39.2
07:00 1024 30.24 853 25.19 14.4 57.8 49 4 39.2
07:05 1024 30.24 853 25.19 14.5 58.1 49 4.1 39.4
07:10 1024 30.24 853 25.19 14.7 58.4 49 4.1 39.3
07:15 1024 30.24 853 25.19 14.7 58.5 49 4.3 39.7
07:20 1024 30.24 853 25.19 14.7 58.5 49 4.2 39.5
07:25 1024 30.24 853 25.19 15 58.9 48 4 39.2
07:30 1024 30.24 853 25.19 15.2 59.4 48 4.3 39.7
07:35 1024 30.24 853 25.19 15.6 60 47 4.5 40.1
07:40 1024 30.24 853 25.19 15.8 60.5 48 5 41
07:45 1024 30.24 853 25.19 15.7 60.2 48 4.7 40.5
07:50 1024 30.24 853 25.19 15.8 60.4 50 5.3 41.6
07:55 1024 30.24 853 25.19 15.3 59.5 54 6.2 43.2
08:00 1024 30.24 853 25.19 15.1 59.1 52 5.4 41.6
08:05 1024 30.24 853 25.19 15.3 59.6 52 5.6 42.1
08:10 1024 30.24 853 25.19 15.9 60.6 50 5.6 42.1
08:15 1024 30.24 853 25.19 16.4 61.4 48 5.5 42
08:20 1024 30.24 853 25.19 16.6 61.9 48 5.7 42.2
08:25 1024 30.24 853 25.19 17.1 62.7 51 7 44.6
08:30 1024 30.24 853 25.19 17.7 63.9 44 5.4 41.8
08:35 1024 30.24 853 25.19 18.4 65.1 43 5.7 42.2
08:40 1024 30.24 853 25.19 18.6 65.5 43 5.8 42.5
08:45 1024 30.24 853 25.19 18.6 65.6 42 5.4 41.8
08:50 1024 30.24 853 25.19 19.1 66.3 40 5.3 41.6
08:55 1024 30.24 853 25.19 19.7 67.4 41 6.2 43.2
09:00 1024 30.24 853 25.19 19.8 67.6 45 7.6 45.7
09:05 1024 30.24 853 25.19 20 67.9 41 6.6 43.8
09:10 1024 30.24 853 25.19 20.2 68.3 42 7.1 44.8
09:15 1024 30.24 853 25.19 20.5 68.9 39 6.1 43
09:20 1024 30.24 853 25.19 21.1 69.9 35 5.2 41.4
09:25 1024 30.24 853 25.19 21.4 70.6 33 4.6 40.3
09:30 1024 30.24 853 25.19 21.1 70 34 5 41
09:35 1024 30.24 853 25.19 21.5 70.7 30 3.6 38.4
09:40 1024 30.24 853 25.19 22 71.6 29 3.5 38.3
09:45 1024 30.24 853 25.19 22.2 72 30 4.1 39.5
09:50 1024 30.24 853 25.19 22 71.6 30 3.6 38.5
09:55 1024 30.24 853 25.19 22.1 71.8 31 4.4 39.9
10:00 1024 30.24 853 25.19 22.5 72.4 30 4.4 39.9
10:05 1024 30.24 853 25.19 23 73.4 30 4.7 40.4
10:10 1024 30.24 853 25.19 23 73.5 30 4.6 40.3
10:15 1024 30.24 853 25.19 23.9 75 29 4.9 40.8
10:20 1024 30.24 853 25.19 23.7 74.7 30 5.5 41.9
10:25 1024 30.24 853 25.19 22.6 72.6 30 4.5 40.2
10:30 1024 30.24 853 25.19 23.2 73.8 30 4.9 40.7
10:35 1024 30.24 853 25.19 23.6 74.4 29 4.9 40.7
10:40 1024 30.24 853 25.19 23.7 74.6 30 5.2 41.4
10:45 1024 30.24 853 25.19 24.2 75.6 29 5.3 41.5
10:50 1024 30.24 853 25.19 24.2 75.5 30 5.5 41.9
10:55 1024 30.24 853 25.19 24.4 75.9 29 5.2 41.4
11:00 1024 30.24 853 25.19 24.8 76.7 26 4.5 40.1
11:05 1024 30.24 853 25.19 25 76.9 28 5.4 41.7
11:10 1024 30.24 853 25.19 25.3 77.5 27 5 41
11:15 1024 30.24 853 25.19 25.8 78.5 27 5.5 41.9
11:20 1024 30.24 853 25.19 25.6 78.2 26 4.8 40.7
11:25 1024 30.24 853 25.19 26 78.8 25 4.9 40.8
11:30 1024 30.24 853 25.19 25.6 78.1 26 5.1 41.2
11:35 1024 30.24 853 25.19 25.7 78.3 27 5.4 41.7
11:40 1024 30.24 853 25.19 26.3 79.3 25 5.1 41.1
11:45 1024 30.24 853 25.19 26.3 79.3 26 5.3 41.5
11:50 1024 30.24 853 25.19 26.4 79.5 25 5.1 41.1
11:55 1024 30.24 853 25.19 26.9 80.5 26 6.2 43.1
12:00 1024 30.24 853 25.19 27.2 81 23 4.4 39.9
12:05 1024 30.24 853 25.19 27.1 80.7 24 5.1 41.1
12:10 1024 30.24 853 25.19 27.1 80.7 24 5 41
12:15 1024 30.24 853 25.19 26.8 80.2 24 5 40.9
12:20 1024 30.24 853 25.19 26.8 80.3 25 5.5 41.9
12:25 1023 30.21 853 25.19 27 80.7 24 5.1 41.2
12:30 1023 30.21 853 25.19 26.4 79.6 23 3.6 38.5
12:35 1023 30.21 852 25.16 27.3 81.2 22 3.9 39.1
12:40 1023 30.21 852 25.16 27.3 81.1 21 3.2 37.8
12:45 1023 30.21 852 25.16 28 82.4 20 3.6 38.4
12:50 1023 30.21 852 25.16 28.4 83.1 21 4.4 39.9
12:55 1023 30.21 852 25.16 27.9 82.2 23 4.9 40.9
13:00 1023 30.21 852 25.16 26 78.9 24 4 39.3
13:05 1023 30.21 852 25.16 26.7 80 21 2.8 37
13:10 1023 30.21 852 25.16 27 80.6 20 2.6 36.7
13:15 1023 30.21 852 25.16 27.8 82.1 19 2.7 36.9
13:20 1023 30.21 852 25.16 28.8 83.8 18 2.7 36.8
13:25 1023 30.21 852 25.16 28.7 83.7 16 0.6 33.1
13:30 1023 30.21 852 25.16 27.9 82.3 18 1.8 35.2
13:35 1023 30.21 852 25.16 28.1 82.6 17 1.3 34.4
13:40 1023 30.21 852 25.16 28.4 83.1 17 1.2 34.1
13:45 1023 30.21 852 25.16 28.2 82.8 17 1.1 33.9
13:50 1023 30.21 852 25.16 27.8 82 17 0.7 33.3
13:55 1023 30.21 852 25.16 28.9 84.1 17 2 35.5
14:00 1023 30.21 852 25.16 29 84.2 16 0.9 33.7
14:05 1022 30.18 852 25.16 29.8 85.6 15 1 33.8
14:10 1022 30.18 852 25.16 30.5 86.8 15 1 33.9
14:15 1022 30.18 852 25.16 30.2 86.4 15 1 33.8
14:20 1022 30.18 852 25.16 29 84.3 17 1.7 35.1
14:25 1022 30.18 852 25.16 28.5 83.2 17 1.2 34.1
14:30 1022 30.18 851 25.13 28.3 82.9 17 1.2 34.1
14:35 1022 30.18 851 25.13 28.8 83.8 15 0.3 32.5
14:40 1022 30.18 851 25.13 29.1 84.4 15 0.4 32.7
14:45 1022 30.18 851 25.13 28.7 83.6 17 1.2 34.2
14:50 1022 30.18 851 25.13 29.4 84.8 15 0.6 33
14:55 1022 30.18 851 25.13 29.7 85.4 15 0.8 33.4
15:00 1022 30.18 851 25.13 29.7 85.5 15 1 33.7
15:05 1022 30.18 851 25.13 30 85.9 16 1.5 34.7
15:10 1022 30.18 851 25.13 30.3 86.5 14 0.4 32.7
15:15 1022 30.18 851 25.13 30.3 86.5 14 -0.2 31.6
15:20 1022 30.18 851 25.13 30.5 86.9 14 0.8 33.4
15:25 1022 30.18 851 25.13 30.8 87.5 14 0.4 32.7
15:30 1022 30.18 851 25.13 31 87.7 14 0.2 32.4
15:35 1022 30.18 851 25.13 30.7 87.3 14 0.1 32.2
15:40 1022 30.18 851 25.13 31 87.7 13 -0 31.9
15:45 1021 30.15 851 25.13 30.9 87.7 13 -0.3 31.5
15:50 1021 30.15 851 25.13 30.7 87.2 14 0.1 32.2
15:55 1021 30.15 851 25.13 30.5 86.9 14 -0.1 31.9
16:00 1021 30.15 851 25.13 30.9 87.5 13 -0.1 31.9
16:05 1021 30.15 851 25.13 30.8 87.5 13 0.1 32.1
16:10 1021 30.15 850 25.1 30.7 87.3 13 -1 30.2
16:15 1021 30.15 850 25.1 30.4 86.7 13 -1.3 29.7
16:20 1021 30.15 850 25.1 30.1 86.2 13 -1 30.2
16:25 1021 30.15 850 25.1 30.4 86.7 14 0.1 32.2
16:30 1021 30.15 850 25.1 30.3 86.6 13 -0.6 31
16:35 1021 30.15 850 25.1 30.2 86.4 13 -1.1 30.1
16:40 1021 30.15 850 25.1 30.6 87.1 12 -1.3 29.7
16:45 1021 30.15 850 25.1 31.1 87.9 13 -0.6 30.9
16:50 1021 30.15 850 25.1 31.3 88.3 11 -1.8 28.7
16:55 1021 30.15 850 25.1 31.3 88.3 11 -2.2 28.1
17:00 1021 30.15 850 25.1 30.7 87.2 12 -1.1 30
17:05 1021 30.15 850 25.1 31.1 88 12 -1.6 29.2
17:10 1021 30.15 850 25.1 31.3 88.3 13 -0.4 31.3
17:15 1021 30.15 850 25.1 31.3 88.3 13 -0.5 31.2
17:20 1021 30.15 850 25.1 31 87.8 12 -1.2 29.9
17:25 1021 30.15 850 25.1 30.9 87.5 12 -1.1 30
17:30 1020 30.12 850 25.1 30.6 87.1 12 -1.6 29.2
17:35 1020 30.12 850 25.1 30.5 86.8 12 -1.4 29.5
17:40 1020 30.12 850 25.1 30.4 86.8 12 -1.7 28.9
17:45 1020 30.12 850 25.1 31 87.7 13 -0.4 31.3
17:50 1020 30.12 850 25.1 30.7 87.3 12 -1.7 28.9
17:55 1020 30.12 850 25.1 30.9 87.6 13 -0.5 31.1
18:00 1020 30.12 850 25.1 30.8 87.5 13 -0.2 31.6
18:05 1020 30.12 850 25.1 31 87.9 13 -0.1 31.8
18:10 1020 30.12 849 25.07 31.2 88.2 12 -0.8 30.5
18:15 1020 30.12 849 25.07 31.3 88.4 13 0.3 32.6
18:20 1020 30.12 849 25.07 30.9 87.7 13 0.1 32.2
18:25 1020 30.12 849 25.07 30.5 86.9 14 0.1 32.2
18:30 1020 30.12 849 25.07 30.6 87.1 13 -0.2 31.7
18:35 1020 30.12 849 25.07 30.7 87.3 14 0.3 32.6
18:40 1020 30.12 849 25.07 30.4 86.7 14 0 32
18:45 1020 30.12 849 25.07 30.2 86.3 15 1 33.7
18:50 1020 30.12 849 25.07 30.1 86.2 15 0.7 33.3
18:55 1020 30.12 849 25.07 29.7 85.4 17 2.4 36.3
19:00 1020 30.12 849 25.07 29.1 84.4 16 0.7 33.3
19:05 1020 30.12 849 25.07 28.8 83.9 16 0.4 32.7
19:10 1020 30.12 849 25.07 28.5 83.3 17 1.4 34.5
19:15 1020 30.12 849 25.07 28.3 83 18 1.9 35.5
19:20 1020 30.12 849 25.07 28 82.4 19 2.4 36.2
19:25 1020 30.12 849 25.07 27.7 81.9 21 3.4 38.1
19:30 1020 30.12 850 25.1 27.4 81.4 21 3.7 38.6
19:35 1020 30.12 850 25.1 26.5 79.6 22 3.1 37.6
19:40 1020 30.12 850 25.1 25.4 77.8 22 2.3 36.1
19:45 1020 30.12 850 25.1 25 77 22 2.2 35.9
19:50 1021 30.15 850 25.1 24.8 76.6 22 1.8 35.3
19:55 1021 30.15 850 25.1 24.7 76.5 22 1.9 35.5
20:00 1021 30.15 850 25.1 24.7 76.5 19 -0.1 31.8
20:05 1021 30.15 850 25.1 25.4 77.7 20 1 33.8
20:10 1021 30.15 850 25.1 25.1 77.3 21 1.2 34.2
20:15 1021 30.15 850 25.1 24.8 76.7 21 1.6 34.9
20:20 1021 30.15 850 25.1 24.7 76.4 22 1.7 35.1
20:25 1021 30.15 850 25.1 24.4 75.9 23 2.4 36.3
20:30 1021 30.15 850 25.1 24.5 76.1 22 1.9 35.4
20:35 1021 30.15 850 25.1 24.7 76.4 23 2.6 36.7
20:40 1021 30.15 851 25.13 24.3 75.8 25 3.3 37.9
20:45 1022 30.18 851 25.13 23.6 74.4 28 4 39.2
20:50 1022 30.18 851 25.13 23.2 73.8 26 3 37.5
20:55 1022 30.18 851 25.13 23.4 74.1 26 3.2 37.8
21:00 1022 30.18 851 25.13 23.4 74.1 27 3.7 38.7
21:05 1022 30.18 851 25.13 23 73.5 26 2.8 37
21:10 1022 30.18 851 25.13 23.2 73.8 26 2.9 37.2
21:15 1022 30.18 851 25.13 23.4 74.1 26 2.9 37.2
21:20 1022 30.18 851 25.13 23.5 74.3 24 2.1 35.8
21:25 1022 30.18 851 25.13 23.7 74.6 25 2.6 36.6
21:30 1022 30.18 851 25.13 23.6 74.4 25 2.8 37.1
21:35 1022 30.18 851 25.13 23.4 74.2 24 2.1 35.7
21:40 1022 30.18 851 25.13 23.5 74.3 24 1.8 35.3
21:45 1022 30.18 851 25.13 23.8 74.8 24 2.3 36.2
21:50 1022 30.18 851 25.13 23.8 74.9 23 1.9 35.4
21:55 1022 30.18 851 25.13 23.8 74.9 24 2.1 35.7
22:00 1022 30.18 851 25.13 23.3 73.9 28 4.1 39.4
22:05 1022 30.18 851 25.13 22.2 72 31 4.5 40
22:10 1022 30.18 851 25.13 21.5 70.7 31 3.9 39
22:15 1022 30.18 851 25.13 21.6 70.8 30 3.3 38
22:20 1022 30.18 851 25.13 21.6 70.8 30 3.4 38.1
22:25 1022 30.18 851 25.13 21.6 70.9 29 3 37.5
22:30 1022 30.18 851 25.13 21.7 71 30 3.4 38.1
22:35 1022 30.18 851 25.13 21.3 70.4 30 3.5 38.2
22:40 1022 30.18 851 25.13 21.2 70.2 31 3.4 38.1
22:45 1022 30.18 851 25.13 21.1 70 31 3.4 38.1
22:50 1022 30.18 851 25.13 21 69.8 31 3.3 38
22:55 1022 30.18 851 25.13 20.8 69.5 31 3.3 37.9
23:00 1022 30.18 851 25.13 20.3 68.5 34 4.1 39.4
23:05 1022 30.18 851 25.13 19.7 67.4 34 3.6 38.5
23:10 1022 30.18 851 25.13 19.5 67.1 36 4.1 39.3
23:15 1021 30.15 851 25.13 19.1 66.4 35 3.5 38.4
23:20 1021 30.15 851 25.13 19.4 66.8 37 4.4 39.9
23:25 1021 30.15 851 25.13 18.7 65.7 37 4 39.1
23:30 1021 30.15 851 25.13 18.3 65 38 3.8 38.8
23:35 1021 30.15 851 25.13 18.3 64.9 37 3.6 38.6
23:40 1021 30.15 851 25.13 18.2 64.8 38 3.7 38.7
23:45 1021 30.15 851 25.13 18.2 64.8 37 3.5 38.3
23:50 1021 30.15 851 25.13 18.1 64.6 38 3.8 38.8
23:55 1021 30.15 851 25.13 18.1 64.5 38 3.8 38.9
24:00 1021 30.15 851 25.13 17.9 64.2 43 5.4 41.6